sensor_id;sensor_type;location;lat;lon;timestamp;temperature;humidity
5842;DHT22;2947;52.276;9.946;2023-10-09T00:01:50;13.10;99.90
5842;DHT22;2947;52.276;9.946;2023-10-09T00:04:18;13.10;99.90
5842;DHT22;2947;52.276;9.946;2023-10-09T00:06:46;13.10;99.90
5842;DHT22;2947;52.276;9.946;2023-10-09T00:09:12;13.10;99.90
5842;DHT22;2947;52.276;9.946;2023-10-09T00:11:43;13.20;99.90
5842;DHT22;2947;52.276;9.946;2023-10-09T00:14:11;13.20;99.90
5842;DHT22;2947;52.276;9.946;2023-10-09T00:16:37;13.20;1.00
5842;DHT22;2947;52.276;9.946;2023-10-09T00:19:12;13.20;1.00
5842;DHT22;2947;52.276;9.946;2023-10-09T00:21:56;13.20;1.00
5842;DHT22;2947;52.276;9.946;2023-10-09T00:24:24;13.20;1.00
5842;DHT22;2947;52.276;9.946;2023-10-09T00:26:53;13.20;13.40
5842;DHT22;2947;52.276;9.946;2023-10-09T00:29:37;13.10;99.90
5842;DHT22;2947;52.276;9.946;2023-10-09T00:32:09;13.10;99.90
5842;DHT22;2947;52.276;9.946;2023-10-09T00:34:58;13.10;99.90
5842;DHT22;2947;52.276;9.946;2023-10-09T00:37:39;13.20;1.00
5842;DHT22;2947;52.276;9.946;2023-10-09T00:40:05;13.10;99.90
5842;DHT22;2947;52.276;9.946;2023-10-09T00:42:49;13.10;1.00
5842;DHT22;2947;52.276;9.946;2023-10-09T00:45:15;13.10;98.30
5842;DHT22;2947;52.276;9.946;2023-10-09T00:47:54;13.10;99.90
5842;DHT22;2947;52.276;9.946;2023-10-09T00:50:24;13.10;99.90
5842;DHT22;2947;52.276;9.946;2023-10-09T00:53:00;13.10;99.90
5842;DHT22;2947;52.276;9.946;2023-10-09T00:55:32;13.10;1.00
5842;DHT22;2947;52.276;9.946;2023-10-09T00:58:14;13.10;57.30
5842;DHT22;2947;52.276;9.946;2023-10-09T01:00:49;13.10;99.90
5842;DHT22;2947;52.276;9.946;2023-10-09T01:03:18;13.10;99.90
5842;DHT22;2947;52.276;9.946;2023-10-09T01:05:48;13.10;99.90
5842;DHT22;2947;52.276;9.946;2023-10-09T01:08:22;13.10;99.90
5842;DHT22;2947;52.276;9.946;2023-10-09T01:10:55;13.10;99.90
5842;DHT22;2947;52.276;9.946;2023-10-09T01:13:24;13.10;99.90
5842;DHT22;2947;52.276;9.946;2023-10-09T01:16:24;13.20;99.90
5842;DHT22;2947;52.276;9.946;2023-10-09T01:18:55;13.20;99.90
5842;DHT22;2947;52.276;9.946;2023-10-09T01:21:25;13.20;99.90
5842;DHT22;2947;52.276;9.946;2023-10-09T01:23:53;13.30;99.90
5842;DHT22;2947;52.276;9.946;2023-10-09T01:26:32;13.30;99.90
5842;DHT22;2947;52.276;9.946;2023-10-09T01:29:21;13.30;1.00
5842;DHT22;2947;52.276;9.946;2023-10-09T01:31:54;13.30;1.00
5842;DHT22;2947;52.276;9.946;2023-10-09T01:34:41;13.30;1.00
5842;DHT22;2947;52.276;9.946;2023-10-09T01:37:13;13.30;1.00
5842;DHT22;2947;52.276;9.946;2023-10-09T01:39:49;13.40;1.00
5842;DHT22;2947;52.276;9.946;2023-10-09T01:42:19;13.40;1.00
5842;DHT22;2947;52.276;9.946;2023-10-09T01:45:06;13.40;1.00
5842;DHT22;2947;52.276;9.946;2023-10-09T01:47:44;13.40;1.00
5842;DHT22;2947;52.276;9.946;2023-10-09T01:50:17;13.40;1.00
5842;DHT22;2947;52.276;9.946;2023-10-09T01:53:00;13.40;1.00
5842;DHT22;2947;52.276;9.946;2023-10-09T01:55:29;13.30;1.00
5842;DHT22;2947;52.276;9.946;2023-10-09T01:58:05;13.30;1.00
5842;DHT22;2947;52.276;9.946;2023-10-09T02:00:42;13.30;1.00
5842;DHT22;2947;52.276;9.946;2023-10-09T02:03:13;13.30;1.00
5842;DHT22;2947;52.276;9.946;2023-10-09T02:05:59;13.20;1.00
5842;DHT22;2947;52.276;9.946;2023-10-09T02:08:25;13.20;1.00
5842;DHT22;2947;52.276;9.946;2023-10-09T02:10:55;13.20;22.40
5842;DHT22;2947;52.276;9.946;2023-10-09T02:13:22;13.10;50.60
5842;DHT22;2947;52.276;9.946;2023-10-09T02:15:56;13.10;99.90
5842;DHT22;2947;52.276;9.946;2023-10-09T02:18:38;13.10;99.90
5842;DHT22;2947;52.276;9.946;2023-10-09T02:21:21;13.00;99.90
5842;DHT22;2947;52.276;9.946;2023-10-09T02:24:14;13.00;99.90
5842;DHT22;2947;52.276;9.946;2023-10-09T02:26:52;13.10;99.90
5842;DHT22;2947;52.276;9.946;2023-10-09T02:29:18;13.10;99.90
5842;DHT22;2947;52.276;9.946;2023-10-09T02:31:49;13.10;99.90
5842;DHT22;2947;52.276;9.946;2023-10-09T02:34:26;13.10;99.90
5842;DHT22;2947;52.276;9.946;2023-10-09T02:36:53;13.00;99.90
5842;DHT22;2947;52.276;9.946;2023-10-09T02:39:31;12.90;99.90
5842;DHT22;2947;52.276;9.946;2023-10-09T02:42:02;12.90;99.90
5842;DHT22;2947;52.276;9.946;2023-10-09T02:44:40;12.90;99.90
5842;DHT22;2947;52.276;9.946;2023-10-09T02:47:12;13.00;99.90
5842;DHT22;2947;52.276;9.946;2023-10-09T02:49:48;12.90;99.90
5842;DHT22;2947;52.276;9.946;2023-10-09T02:52:15;12.90;99.90
5842;DHT22;2947;52.276;9.946;2023-10-09T02:54:47;12.90;99.90
5842;DHT22;2947;52.276;9.946;2023-10-09T02:57:13;12.90;99.90
5842;DHT22;2947;52.276;9.946;2023-10-09T03:00:04;13.00;99.90
5842;DHT22;2947;52.276;9.946;2023-10-09T03:02:54;12.90;99.90
5842;DHT22;2947;52.276;9.946;2023-10-09T03:05:19;13.00;99.90
5842;DHT22;2947;52.276;9.946;2023-10-09T03:07:46;12.90;99.90
5842;DHT22;2947;52.276;9.946;2023-10-09T03:10:11;13.00;99.90
5842;DHT22;2947;52.276;9.946;2023-10-09T03:12:37;12.90;99.90
5842;DHT22;2947;52.276;9.946;2023-10-09T03:15:05;13.00;99.90
5842;DHT22;2947;52.276;9.946;2023-10-09T03:17:34;13.00;99.90
5842;DHT22;2947;52.276;9.946;2023-10-09T03:20:06;13.00;99.90
5842;DHT22;2947;52.276;9.946;2023-10-09T03:22:38;13.00;99.90
5842;DHT22;2947;52.276;9.946;2023-10-09T03:25:06;13.00;99.90
5842;DHT22;2947;52.276;9.946;2023-10-09T03:27:43;13.00;99.90
5842;DHT22;2947;52.276;9.946;2023-10-09T03:30:13;13.00;99.90
5842;DHT22;2947;52.276;9.946;2023-10-09T03:32:49;13.00;99.90
5842;DHT22;2947;52.276;9.946;2023-10-09T03:35:22;13.00;99.90
5842;DHT22;2947;52.276;9.946;2023-10-09T03:37:57;12.90;99.90
5842;DHT22;2947;52.276;9.946;2023-10-09T03:40:26;12.90;99.90
5842;DHT22;2947;52.276;9.946;2023-10-09T03:42:52;12.90;99.90
5842;DHT22;2947;52.276;9.946;2023-10-09T03:45:21;12.90;99.90
5842;DHT22;2947;52.276;9.946;2023-10-09T03:47:52;12.90;99.90
5842;DHT22;2947;52.276;9.946;2023-10-09T03:50:23;12.90;99.90
5842;DHT22;2947;52.276;9.946;2023-10-09T03:53:02;12.90;99.90
5842;DHT22;2947;52.276;9.946;2023-10-09T03:55:31;12.90;99.90
5842;DHT22;2947;52.276;9.946;2023-10-09T03:57:57;12.90;99.90
5842;DHT22;2947;52.276;9.946;2023-10-09T04:00:27;13.00;99.90
5842;DHT22;2947;52.276;9.946;2023-10-09T04:02:57;12.90;99.90
5842;DHT22;2947;52.276;9.946;2023-10-09T04:05:24;13.00;99.90
5842;DHT22;2947;52.276;9.946;2023-10-09T04:07:51;13.00;99.90
5842;DHT22;2947;52.276;9.946;2023-10-09T04:10:20;13.10;99.90
5842;DHT22;2947;52.276;9.946;2023-10-09T04:12:58;13.10;99.90
5842;DHT22;2947;52.276;9.946;2023-10-09T04:15:26;13.20;99.90
5842;DHT22;2947;52.276;9.946;2023-10-09T04:17:56;13.20;99.90
5842;DHT22;2947;52.276;9.946;2023-10-09T04:20:22;13.30;99.90
5842;DHT22;2947;52.276;9.946;2023-10-09T04:22:48;13.30;99.90
5842;DHT22;2947;52.276;9.946;2023-10-09T04:25:20;13.40;99.90
5842;DHT22;2947;52.276;9.946;2023-10-09T04:27:59;13.40;99.90
5842;DHT22;2947;52.276;9.946;2023-10-09T04:30:39;13.50;99.90
5842;DHT22;2947;52.276;9.946;2023-10-09T04:33:12;13.60;99.90
5842;DHT22;2947;52.276;9.946;2023-10-09T04:36:04;13.60;99.90
5842;DHT22;2947;52.276;9.946;2023-10-09T04:38:53;13.60;99.90
5842;DHT22;2947;52.276;9.946;2023-10-09T04:41:41;13.60;99.90
5842;DHT22;2947;52.276;9.946;2023-10-09T04:44:07;13.60;99.90
5842;DHT22;2947;52.276;9.946;2023-10-09T04:46:48;13.70;99.90
5842;DHT22;2947;52.276;9.946;2023-10-09T04:49:34;13.70;99.90
5842;DHT22;2947;52.276;9.946;2023-10-09T04:52:19;13.70;99.90
5842;DHT22;2947;52.276;9.946;2023-10-09T04:54:55;13.70;99.90
5842;DHT22;2947;52.276;9.946;2023-10-09T04:57:37;13.70;99.90
5842;DHT22;2947;52.276;9.946;2023-10-09T05:00:10;13.80;99.90
5842;DHT22;2947;52.276;9.946;2023-10-09T05:02:53;13.80;99.90
5842;DHT22;2947;52.276;9.946;2023-10-09T05:05:32;13.80;99.90
5842;DHT22;2947;52.276;9.946;2023-10-09T05:08:18;13.80;99.90
5842;DHT22;2947;52.276;9.946;2023-10-09T05:10:49;13.90;99.90
5842;DHT22;2947;52.276;9.946;2023-10-09T05:13:26;13.90;99.90
5842;DHT22;2947;52.276;9.946;2023-10-09T05:16:16;13.90;99.90
5842;DHT22;2947;52.276;9.946;2023-10-09T05:18:51;14.00;99.90
5842;DHT22;2947;52.276;9.946;2023-10-09T05:21:36;14.00;99.90
5842;DHT22;2947;52.276;9.946;2023-10-09T05:24:10;14.00;99.90
5842;DHT22;2947;52.276;9.946;2023-10-09T05:26:37;14.10;99.90
5842;DHT22;2947;52.276;9.946;2023-10-09T05:29:17;14.00;99.90
5842;DHT22;2947;52.276;9.946;2023-10-09T05:31:51;14.10;99.90
5842;DHT22;2947;52.276;9.946;2023-10-09T05:34:23;14.10;99.90
5842;DHT22;2947;52.276;9.946;2023-10-09T05:37:05;14.10;99.90
5842;DHT22;2947;52.276;9.946;2023-10-09T05:39:48;14.10;99.90
5842;DHT22;2947;52.276;9.946;2023-10-09T05:42:45;14.10;99.90
5842;DHT22;2947;52.276;9.946;2023-10-09T05:45:22;14.20;99.90
5842;DHT22;2947;52.276;9.946;2023-10-09T05:48:07;14.20;99.90
5842;DHT22;2947;52.276;9.946;2023-10-09T05:50:39;14.20;99.90
5842;DHT22;2947;52.276;9.946;2023-10-09T05:53:20;14.20;99.90
5842;DHT22;2947;52.276;9.946;2023-10-09T05:56:04;14.20;99.90
5842;DHT22;2947;52.276;9.946;2023-10-09T05:58:52;14.20;99.90
5842;DHT22;2947;52.276;9.946;2023-10-09T06:01:36;14.20;99.90
5842;DHT22;2947;52.276;9.946;2023-10-09T06:04:21;14.30;99.90
5842;DHT22;2947;52.276;9.946;2023-10-09T06:06:59;14.30;99.90
5842;DHT22;2947;52.276;9.946;2023-10-09T06:09:36;14.30;99.90
5842;DHT22;2947;52.276;9.946;2023-10-09T06:12:21;14.30;99.90
5842;DHT22;2947;52.276;9.946;2023-10-09T06:15:10;14.30;99.90
5842;DHT22;2947;52.276;9.946;2023-10-09T06:17:57;14.30;99.90
5842;DHT22;2947;52.276;9.946;2023-10-09T06:20:43;14.30;99.90
5842;DHT22;2947;52.276;9.946;2023-10-09T06:23:27;14.30;99.90
5842;DHT22;2947;52.276;9.946;2023-10-09T06:26:13;14.30;99.90
5842;DHT22;2947;52.276;9.946;2023-10-09T06:28:52;14.40;99.90
5842;DHT22;2947;52.276;9.946;2023-10-09T06:31:40;14.40;99.90
5842;DHT22;2947;52.276;9.946;2023-10-09T06:34:28;14.40;99.90
5842;DHT22;2947;52.276;9.946;2023-10-09T06:37:01;14.40;99.90
5842;DHT22;2947;52.276;9.946;2023-10-09T06:39:43;14.40;99.90
5842;DHT22;2947;52.276;9.946;2023-10-09T06:42:25;14.40;99.90
5842;DHT22;2947;52.276;9.946;2023-10-09T06:45:06;14.40;99.90
5842;DHT22;2947;52.276;9.946;2023-10-09T06:47:35;14.40;99.90
5842;DHT22;2947;52.276;9.946;2023-10-09T06:50:15;14.40;99.90
5842;DHT22;2947;52.276;9.946;2023-10-09T06:52:47;14.40;99.90
5842;DHT22;2947;52.276;9.946;2023-10-09T06:55:38;14.40;99.90
5842;DHT22;2947;52.276;9.946;2023-10-09T06:58:21;14.40;99.90
5842;DHT22;2947;52.276;9.946;2023-10-09T07:01:07;14.40;99.90
5842;DHT22;2947;52.276;9.946;2023-10-09T07:03:50;14.40;99.90
5842;DHT22;2947;52.276;9.946;2023-10-09T07:06:20;14.50;99.90
5842;DHT22;2947;52.276;9.946;2023-10-09T07:08:53;14.50;99.90
5842;DHT22;2947;52.276;9.946;2023-10-09T07:11:47;14.40;99.90
5842;DHT22;2947;52.276;9.946;2023-10-09T07:14:15;14.40;99.90
5842;DHT22;2947;52.276;9.946;2023-10-09T07:17:07;14.40;99.90
5842;DHT22;2947;52.276;9.946;2023-10-09T07:19:48;14.40;99.90
5842;DHT22;2947;52.276;9.946;2023-10-09T07:22:15;14.40;99.90
5842;DHT22;2947;52.276;9.946;2023-10-09T07:24:47;14.40;99.90
5842;DHT22;2947;52.276;9.946;2023-10-09T07:27:27;14.40;99.90
5842;DHT22;2947;52.276;9.946;2023-10-09T07:30:10;14.50;99.90
5842;DHT22;2947;52.276;9.946;2023-10-09T07:35:39;14.40;99.90
5842;DHT22;2947;52.276;9.946;2023-10-09T07:38:16;14.40;99.90
5842;DHT22;2947;52.276;9.946;2023-10-09T07:40:47;14.40;99.90
5842;DHT22;2947;52.276;9.946;2023-10-09T07:43:45;14.40;99.90
5842;DHT22;2947;52.276;9.946;2023-10-09T07:46:13;14.40;99.90
5842;DHT22;2947;52.276;9.946;2023-10-09T07:49:04;14.40;99.90
5842;DHT22;2947;52.276;9.946;2023-10-09T07:51:50;14.40;99.90
5842;DHT22;2947;52.276;9.946;2023-10-09T07:54:20;14.40;99.90
5842;DHT22;2947;52.276;9.946;2023-10-09T07:56:59;14.40;99.90
5842;DHT22;2947;52.276;9.946;2023-10-09T07:59:57;14.40;99.90
5842;DHT22;2947;52.276;9.946;2023-10-09T08:02:57;14.30;99.90
5842;DHT22;2947;52.276;9.946;2023-10-09T08:05:25;14.40;99.90
5842;DHT22;2947;52.276;9.946;2023-10-09T08:07:59;14.40;99.90
5842;DHT22;2947;52.276;9.946;2023-10-09T08:10:48;14.40;99.90
5842;DHT22;2947;52.276;9.946;2023-10-09T08:13:32;14.40;99.90
5842;DHT22;2947;52.276;9.946;2023-10-09T08:16:23;14.40;99.90
5842;DHT22;2947;52.276;9.946;2023-10-09T08:18:50;14.40;99.90
5842;DHT22;2947;52.276;9.946;2023-10-09T08:21:22;14.50;99.90
5842;DHT22;2947;52.276;9.946;2023-10-09T08:24:07;14.50;99.90
5842;DHT22;2947;52.276;9.946;2023-10-09T08:26:53;14.50;99.90
5842;DHT22;2947;52.276;9.946;2023-10-09T08:29:39;14.50;99.90
5842;DHT22;2947;52.276;9.946;2023-10-09T08:32:11;14.50;99.90
5842;DHT22;2947;52.276;9.946;2023-10-09T08:35:05;14.60;99.90
5842;DHT22;2947;52.276;9.946;2023-10-09T08:37:45;14.60;99.90
5842;DHT22;2947;52.276;9.946;2023-10-09T08:40:14;14.70;99.90
5842;DHT22;2947;52.276;9.946;2023-10-09T08:42:53;14.70;99.90
5842;DHT22;2947;52.276;9.946;2023-10-09T08:45:22;14.80;99.90
5842;DHT22;2947;52.276;9.946;2023-10-09T08:47:56;14.80;99.90
5842;DHT22;2947;52.276;9.946;2023-10-09T08:50:22;14.80;99.90
5842;DHT22;2947;52.276;9.946;2023-10-09T08:52:54;14.90;99.90
5842;DHT22;2947;52.276;9.946;2023-10-09T08:55:20;14.90;99.90
5842;DHT22;2947;52.276;9.946;2023-10-09T08:57:46;15.00;99.90
5842;DHT22;2947;52.276;9.946;2023-10-09T09:00:18;15.00;99.90
5842;DHT22;2947;52.276;9.946;2023-10-09T09:02:55;15.10;99.90
5842;DHT22;2947;52.276;9.946;2023-10-09T09:05:21;15.10;99.90
5842;DHT22;2947;52.276;9.946;2023-10-09T09:07:49;15.20;99.90
5842;DHT22;2947;52.276;9.946;2023-10-09T09:10:15;15.20;99.90
5842;DHT22;2947;52.276;9.946;2023-10-09T09:12:47;15.30;99.90
5842;DHT22;2947;52.276;9.946;2023-10-09T09:15:19;15.30;99.90
5842;DHT22;2947;52.276;9.946;2023-10-09T09:17:47;15.40;99.90
5842;DHT22;2947;52.276;9.946;2023-10-09T09:20:24;15.40;99.90
5842;DHT22;2947;52.276;9.946;2023-10-09T09:23:09;15.40;99.90
5842;DHT22;2947;52.276;9.946;2023-10-09T09:25:45;15.50;99.90
5842;DHT22;2947;52.276;9.946;2023-10-09T09:28:14;15.50;99.90
5842;DHT22;2947;52.276;9.946;2023-10-09T09:30:46;15.50;99.90
5842;DHT22;2947;52.276;9.946;2023-10-09T09:33:24;15.60;99.90
5842;DHT22;2947;52.276;9.946;2023-10-09T09:36:06;15.60;99.90
5842;DHT22;2947;52.276;9.946;2023-10-09T09:38:34;15.60;99.90
5842;DHT22;2947;52.276;9.946;2023-10-09T09:41:08;15.60;99.90
5842;DHT22;2947;52.276;9.946;2023-10-09T09:43:36;15.60;99.90
5842;DHT22;2947;52.276;9.946;2023-10-09T09:46:07;15.70;99.90
5842;DHT22;2947;52.276;9.946;2023-10-09T09:48:37;15.70;99.90
5842;DHT22;2947;52.276;9.946;2023-10-09T09:51:12;15.70;99.90
5842;DHT22;2947;52.276;9.946;2023-10-09T09:53:40;15.70;99.90
5842;DHT22;2947;52.276;9.946;2023-10-09T09:56:06;15.70;99.90
5842;DHT22;2947;52.276;9.946;2023-10-09T09:58:32;15.70;99.90
5842;DHT22;2947;52.276;9.946;2023-10-09T10:01:10;15.70;99.90
5842;DHT22;2947;52.276;9.946;2023-10-09T10:04:07;15.70;99.90
5842;DHT22;2947;52.276;9.946;2023-10-09T10:06:40;15.70;99.90
5842;DHT22;2947;52.276;9.946;2023-10-09T10:09:10;15.70;99.90
5842;DHT22;2947;52.276;9.946;2023-10-09T10:11:44;15.70;99.90
5842;DHT22;2947;52.276;9.946;2023-10-09T10:14:13;15.70;99.90
5842;DHT22;2947;52.276;9.946;2023-10-09T10:17:01;15.70;99.90
5842;DHT22;2947;52.276;9.946;2023-10-09T10:22:27;15.80;99.90
5842;DHT22;2947;52.276;9.946;2023-10-09T10:24:56;15.80;99.90
5842;DHT22;2947;52.276;9.946;2023-10-09T10:27:28;15.80;99.90
5842;DHT22;2947;52.276;9.946;2023-10-09T10:32:54;15.70;99.90
5842;DHT22;2947;52.276;9.946;2023-10-09T10:35:24;15.70;99.90
5842;DHT22;2947;52.276;9.946;2023-10-09T10:41:10;15.60;99.90
5842;DHT22;2947;52.276;9.946;2023-10-09T10:43:37;15.60;99.90
5842;DHT22;2947;52.276;9.946;2023-10-09T10:46:17;15.60;99.90
5842;DHT22;2947;52.276;9.946;2023-10-09T10:48:56;15.70;99.90
5842;DHT22;2947;52.276;9.946;2023-10-09T10:51:34;15.60;99.90
5842;DHT22;2947;52.276;9.946;2023-10-09T10:54:04;15.70;99.90
5842;DHT22;2947;52.276;9.946;2023-10-09T10:56:49;15.60;99.90
5842;DHT22;2947;52.276;9.946;2023-10-09T10:59:15;15.70;99.90
5842;DHT22;2947;52.276;9.946;2023-10-09T11:01:49;15.60;99.90
5842;DHT22;2947;52.276;9.946;2023-10-09T11:04:39;15.60;99.90
5842;DHT22;2947;52.276;9.946;2023-10-09T11:07:06;15.60;99.90
5842;DHT22;2947;52.276;9.946;2023-10-09T11:10:05;15.60;99.90
5842;DHT22;2947;52.276;9.946;2023-10-09T11:15:30;15.60;99.90
5842;DHT22;2947;52.276;9.946;2023-10-09T11:18:11;15.70;99.90
5842;DHT22;2947;52.276;9.946;2023-10-09T11:20:51;15.70;99.90
5842;DHT22;2947;52.276;9.946;2023-10-09T11:23:30;15.70;99.90
5842;DHT22;2947;52.276;9.946;2023-10-09T11:26:02;15.70;99.90
5842;DHT22;2947;52.276;9.946;2023-10-09T11:29:10;15.80;99.90
5842;DHT22;2947;52.276;9.946;2023-10-09T11:32:05;15.70;99.90
5842;DHT22;2947;52.276;9.946;2023-10-09T11:34:34;15.80;99.90
5842;DHT22;2947;52.276;9.946;2023-10-09T11:37:04;15.80;99.90
5842;DHT22;2947;52.276;9.946;2023-10-09T11:39:39;15.80;99.90
5842;DHT22;2947;52.276;9.946;2023-10-09T11:42:25;15.80;99.90
5842;DHT22;2947;52.276;9.946;2023-10-09T11:45:26;15.80;99.90
5842;DHT22;2947;52.276;9.946;2023-10-09T11:47:57;15.80;99.90
5842;DHT22;2947;52.276;9.946;2023-10-09T11:50:43;15.80;99.90
5842;DHT22;2947;52.276;9.946;2023-10-09T11:53:21;15.90;99.90
5842;DHT22;2947;52.276;9.946;2023-10-09T11:55:48;15.90;99.90
5842;DHT22;2947;52.276;9.946;2023-10-09T11:58:18;15.90;99.90
5842;DHT22;2947;52.276;9.946;2023-10-09T12:00:54;15.90;99.90
5842;DHT22;2947;52.276;9.946;2023-10-09T12:03:32;15.90;99.90
5842;DHT22;2947;52.276;9.946;2023-10-09T12:05:59;16.00;99.90
5842;DHT22;2947;52.276;9.946;2023-10-09T12:08:38;15.90;99.90
5842;DHT22;2947;52.276;9.946;2023-10-09T12:11:06;16.00;99.90
5842;DHT22;2947;52.276;9.946;2023-10-09T12:13:37;16.00;99.90
5842;DHT22;2947;52.276;9.946;2023-10-09T12:16:08;16.00;99.90
5842;DHT22;2947;52.276;9.946;2023-10-09T12:18:40;16.00;99.90
5842;DHT22;2947;52.276;9.946;2023-10-09T12:21:07;16.00;99.90
5842;DHT22;2947;52.276;9.946;2023-10-09T12:23:32;16.00;99.90
5842;DHT22;2947;52.276;9.946;2023-10-09T12:26:02;16.00;99.90
5842;DHT22;2947;52.276;9.946;2023-10-09T12:28:29;16.10;99.90
5842;DHT22;2947;52.276;9.946;2023-10-09T12:30:55;16.10;99.90
5842;DHT22;2947;52.276;9.946;2023-10-09T12:33:28;16.10;99.90
5842;DHT22;2947;52.276;9.946;2023-10-09T12:35:55;16.10;99.90
5842;DHT22;2947;52.276;9.946;2023-10-09T12:38:27;16.20;99.90
5842;DHT22;2947;52.276;9.946;2023-10-09T12:41:07;16.20;99.90
5842;DHT22;2947;52.276;9.946;2023-10-09T12:43:48;16.10;99.90
5842;DHT22;2947;52.276;9.946;2023-10-09T12:46:14;16.20;99.90
5842;DHT22;2947;52.276;9.946;2023-10-09T12:48:44;16.20;99.90
5842;DHT22;2947;52.276;9.946;2023-10-09T12:51:13;16.20;99.90
5842;DHT22;2947;52.276;9.946;2023-10-09T12:53:43;16.20;99.90
5842;DHT22;2947;52.276;9.946;2023-10-09T12:56:09;16.20;99.90
5842;DHT22;2947;52.276;9.946;2023-10-09T12:58:37;16.20;99.90
5842;DHT22;2947;52.276;9.946;2023-10-09T13:01:04;16.20;99.90
5842;DHT22;2947;52.276;9.946;2023-10-09T13:03:37;16.20;99.90
5842;DHT22;2947;52.276;9.946;2023-10-09T13:06:04;16.20;99.90
5842;DHT22;2947;52.276;9.946;2023-10-09T13:08:36;16.20;99.90
5842;DHT22;2947;52.276;9.946;2023-10-09T13:11:09;16.20;99.90
5842;DHT22;2947;52.276;9.946;2023-10-09T13:13:40;16.20;99.90
5842;DHT22;2947;52.276;9.946;2023-10-09T13:16:12;16.20;99.90
5842;DHT22;2947;52.276;9.946;2023-10-09T13:18:46;16.30;99.90
5842;DHT22;2947;52.276;9.946;2023-10-09T13:21:18;16.30;99.90
5842;DHT22;2947;52.276;9.946;2023-10-09T13:23:46;16.40;99.90
5842;DHT22;2947;52.276;9.946;2023-10-09T13:26:18;16.50;99.90
5842;DHT22;2947;52.276;9.946;2023-10-09T13:28:45;16.50;99.90
5842;DHT22;2947;52.276;9.946;2023-10-09T13:31:13;16.40;99.90
5842;DHT22;2947;52.276;9.946;2023-10-09T13:33:44;16.50;99.90
5842;DHT22;2947;52.276;9.946;2023-10-09T13:36:10;16.40;99.90
5842;DHT22;2947;52.276;9.946;2023-10-09T13:38:45;16.50;99.90
5842;DHT22;2947;52.276;9.946;2023-10-09T13:41:11;16.50;99.90
5842;DHT22;2947;52.276;9.946;2023-10-09T13:43:43;16.50;99.90
5842;DHT22;2947;52.276;9.946;2023-10-09T13:46:12;16.50;99.90
5842;DHT22;2947;52.276;9.946;2023-10-09T13:48:41;16.60;99.90
5842;DHT22;2947;52.276;9.946;2023-10-09T13:51:12;16.60;99.90
5842;DHT22;2947;52.276;9.946;2023-10-09T13:53:47;16.60;99.90
5842;DHT22;2947;52.276;9.946;2023-10-09T13:56:20;16.70;99.90
5842;DHT22;2947;52.276;9.946;2023-10-09T13:58:50;16.60;99.90
5842;DHT22;2947;52.276;9.946;2023-10-09T14:01:20;16.70;99.90
5842;DHT22;2947;52.276;9.946;2023-10-09T14:03:59;16.70;99.90
5842;DHT22;2947;52.276;9.946;2023-10-09T14:06:26;16.70;99.90
5842;DHT22;2947;52.276;9.946;2023-10-09T14:09:03;16.70;99.90
5842;DHT22;2947;52.276;9.946;2023-10-09T14:11:34;16.80;99.90
5842;DHT22;2947;52.276;9.946;2023-10-09T14:14:05;16.80;99.90
5842;DHT22;2947;52.276;9.946;2023-10-09T14:16:38;16.80;99.90
5842;DHT22;2947;52.276;9.946;2023-10-09T14:19:09;16.80;99.90
5842;DHT22;2947;52.276;9.946;2023-10-09T14:21:39;16.70;99.90
5842;DHT22;2947;52.276;9.946;2023-10-09T14:24:06;16.70;99.90
5842;DHT22;2947;52.276;9.946;2023-10-09T14:26:42;16.80;99.90
5842;DHT22;2947;52.276;9.946;2023-10-09T14:29:10;16.80;99.90
5842;DHT22;2947;52.276;9.946;2023-10-09T14:31:42;16.80;99.90
5842;DHT22;2947;52.276;9.946;2023-10-09T14:34:09;16.80;99.90
5842;DHT22;2947;52.276;9.946;2023-10-09T14:36:34;16.80;99.90
5842;DHT22;2947;52.276;9.946;2023-10-09T14:39:02;16.80;99.90
5842;DHT22;2947;52.276;9.946;2023-10-09T14:41:30;16.80;99.90
5842;DHT22;2947;52.276;9.946;2023-10-09T14:43:59;16.90;99.90
5842;DHT22;2947;52.276;9.946;2023-10-09T14:46:25;16.90;99.90
5842;DHT22;2947;52.276;9.946;2023-10-09T14:48:55;18.50;99.90
5842;DHT22;2947;52.276;9.946;2023-10-09T14:51:21;16.90;99.90
5842;DHT22;2947;52.276;9.946;2023-10-09T14:53:56;16.90;99.90
5842;DHT22;2947;52.276;9.946;2023-10-09T14:56:31;18.70;99.90
5842;DHT22;2947;52.276;9.946;2023-10-09T14:58:59;17.00;99.90
5842;DHT22;2947;52.276;9.946;2023-10-09T15:01:34;17.00;99.90
5842;DHT22;2947;52.276;9.946;2023-10-09T15:04:00;17.00;99.90
5842;DHT22;2947;52.276;9.946;2023-10-09T15:06:27;17.00;99.90
5842;DHT22;2947;52.276;9.946;2023-10-09T15:08:57;17.00;99.90
5842;DHT22;2947;52.276;9.946;2023-10-09T15:11:33;17.90;99.90
5842;DHT22;2947;52.276;9.946;2023-10-09T15:13:59;17.10;99.90
5842;DHT22;2947;52.276;9.946;2023-10-09T15:16:25;17.10;99.90
5842;DHT22;2947;52.276;9.946;2023-10-09T15:18:55;17.10;99.90
5842;DHT22;2947;52.276;9.946;2023-10-09T15:21:23;17.10;99.90
5842;DHT22;2947;52.276;9.946;2023-10-09T15:23:55;18.50;99.90
5842;DHT22;2947;52.276;9.946;2023-10-09T15:26:21;17.10;99.90
5842;DHT22;2947;52.276;9.946;2023-10-09T15:28:49;17.10;99.90
5842;DHT22;2947;52.276;9.946;2023-10-09T15:31:18;17.10;99.90
5842;DHT22;2947;52.276;9.946;2023-10-09T15:33:46;17.20;99.90
5842;DHT22;2947;52.276;9.946;2023-10-09T15:36:16;17.10;99.90
5842;DHT22;2947;52.276;9.946;2023-10-09T15:38:45;17.10;99.90
5842;DHT22;2947;52.276;9.946;2023-10-09T15:41:11;17.20;99.90
5842;DHT22;2947;52.276;9.946;2023-10-09T15:43:37;17.80;99.90
5842;DHT22;2947;52.276;9.946;2023-10-09T15:46:04;17.10;99.90
5842;DHT22;2947;52.276;9.946;2023-10-09T15:48:36;17.20;99.90
5842;DHT22;2947;52.276;9.946;2023-10-09T15:51:02;17.10;99.90
5842;DHT22;2947;52.276;9.946;2023-10-09T15:53:28;17.20;99.90
5842;DHT22;2947;52.276;9.946;2023-10-09T15:55:54;17.10;99.90
5842;DHT22;2947;52.276;9.946;2023-10-09T15:58:23;17.10;99.90
5842;DHT22;2947;52.276;9.946;2023-10-09T16:00:49;17.10;99.90
5842;DHT22;2947;52.276;9.946;2023-10-09T16:03:15;17.10;99.90
5842;DHT22;2947;52.276;9.946;2023-10-09T16:05:43;17.10;99.90
5842;DHT22;2947;52.276;9.946;2023-10-09T16:08:08;17.70;99.90
5842;DHT22;2947;52.276;9.946;2023-10-09T16:10:34;17.10;99.90
5842;DHT22;2947;52.276;9.946;2023-10-09T16:13:01;17.00;99.90
5842;DHT22;2947;52.276;9.946;2023-10-09T16:15:28;17.00;99.90
5842;DHT22;2947;52.276;9.946;2023-10-09T16:17:54;17.10;99.90
5842;DHT22;2947;52.276;9.946;2023-10-09T16:20:31;17.00;99.90
5842;DHT22;2947;52.276;9.946;2023-10-09T16:23:17;17.00;99.90
5842;DHT22;2947;52.276;9.946;2023-10-09T16:25:45;17.70;99.90
5842;DHT22;2947;52.276;9.946;2023-10-09T16:28:11;16.90;99.90
5842;DHT22;2947;52.276;9.946;2023-10-09T16:30:36;16.80;99.90
5842;DHT22;2947;52.276;9.946;2023-10-09T16:33:02;16.80;99.90
5842;DHT22;2947;52.276;9.946;2023-10-09T16:35:30;16.80;99.90
5842;DHT22;2947;52.276;9.946;2023-10-09T16:37:59;16.80;99.90
5842;DHT22;2947;52.276;9.946;2023-10-09T16:40:31;16.80;99.90
5842;DHT22;2947;52.276;9.946;2023-10-09T16:42:57;17.90;99.90
5842;DHT22;2947;52.276;9.946;2023-10-09T16:45:26;16.80;99.90
5842;DHT22;2947;52.276;9.946;2023-10-09T16:47:52;16.80;99.90
5842;DHT22;2947;52.276;9.946;2023-10-09T16:50:21;16.80;99.90
5842;DHT22;2947;52.276;9.946;2023-10-09T16:52:53;16.80;99.90
5842;DHT22;2947;52.276;9.946;2023-10-09T16:55:19;16.80;99.90
5842;DHT22;2947;52.276;9.946;2023-10-09T16:57:46;16.80;99.90
5842;DHT22;2947;52.276;9.946;2023-10-09T17:00:16;16.70;99.90
5842;DHT22;2947;52.276;9.946;2023-10-09T17:03:02;16.70;99.90